Sabzevar, Iran
Current Conditions -  °F | °C
As of 11:00 AM on Friday 28 Nov 2014 (Local Time) from OIMN Reporting Station
Haze Haze  
Wind Chill: 38°   Ceiling: Unl
Heat Index: 41°   Visibility: 4mi
Dew Point: 36°   Wind: 5mph
Humidity: 81%   Direction: 330°NNW
Pressure: 30.15"   Gusts: NA
Location:  36.22°N, 57.63°E
Report Text: OIMN 280800Z 33004KT 6000 BR SCT030 05/02 Q1021
Loading
Personal Weather Stations






























Interactive Weather Map New forecast layout! Learn more

10-Day Weather Forecast

Advertisements
Track Severe Weather on mobile